Time;durP1;ratioP1;P1;durP2;ratioP2;P2;SDS_P1;SDS_P2;PMS_P1;PMS_P2;Temp;Humidity;BMP_temperature;BMP_pressure;BME280_temperature;BME280_humidity;BME280_pressure;Samples;Min_cycle;Max_cycle;Signal;HPM_P1;HPM_P2
2022/05/12 00:00:17;;;;;;;9.73;4.75;;;16.50;54.70;;;;;;5115986;28;20043;-76
2022/05/12 00:02:52;;;;;;;10.82;5.10;;;16.50;54.90;;;;;;5098300;28;20067;-72
2022/05/12 00:05:20;;;;;;;10.70;5.07;;;16.40;54.90;;;;;;5055780;28;20032;-72
2022/05/12 00:07:46;;;;;;;9.20;4.78;;;16.40;55.20;;;;;;5056342;28;20052;-72
2022/05/12 00:10:19;;;;;;;8.98;4.95;;;16.30;54.80;;;;;;5038724;28;20032;-77
2022/05/12 00:12:46;;;;;;;8.88;4.78;;;16.40;55.40;;;;;;5073033;28;20121;-76
2022/05/12 00:15:35;;;;;;;11.75;5.30;;;16.40;55.40;;;;;;5055950;28;20057;-73
2022/05/12 00:18:08;;;;;;;9.82;5.15;;;16.40;55.30;;;;;;5072963;28;20131;-72
2022/05/12 00:20:55;;;;;;;9.10;4.00;;;16.40;55.40;;;;;;5055849;28;20521;-72
2022/05/12 00:23:26;;;;;;;8.07;4.43;;;16.20;55.20;;;;;;5056247;28;20041;-72
2022/05/12 00:25:54;;;;;;;11.57;5.03;;;16.10;55.40;;;;;;5034824;28;20051;-72
2022/05/12 00:28:24;;;;;;;8.88;4.75;;;16.10;55.50;;;;;;5036193;28;20557;-77
2022/05/12 00:30:52;;;;;;;9.10;4.78;;;16.10;55.60;;;;;;5058349;28;20497;-77
2022/05/12 00:33:22;;;;;;;8.35;4.30;;;16.10;55.60;;;;;;5095068;28;20044;-76
2022/05/12 00:35:49;;;;;;;7.00;4.00;;;15.90;55.90;;;;;;5076931;28;20081;-72
2022/05/12 00:38:17;;;;;;;10.63;4.32;;;15.80;56.00;;;;;;5095724;28;20032;-72
2022/05/12 00:40:46;;;;;;;13.43;5.25;;;15.80;56.10;;;;;;5078908;28;20536;-77
2022/05/12 00:43:51;;;;;;;8.80;4.47;;;15.80;56.00;;;;;;5080402;28;20115;-76
2022/05/12 00:46:41;;;;;;;8.25;4.95;;;15.80;55.80;;;;;;5115104;28;20101;-76
2022/05/12 00:49:29;;;;;;;9.18;4.60;;;15.70;55.90;;;;;;5080297;28;20404;-76
2022/05/12 00:52:40;;;;;;;10.35;4.50;;;15.70;56.00;;;;;;5096567;28;20036;-77
2022/05/12 00:55:52;;;;;;;8.95;4.60;;;15.70;56.30;;;;;;5096754;28;20071;-72
2022/05/12 00:58:20;;;;;;;8.15;5.07;;;15.60;56.20;;;;;;5096930;28;20063;-72
2022/05/12 01:00:47;;;;;;;8.65;4.65;;;15.50;56.50;;;;;;5079644;28;20031;-76
2022/05/12 01:03:37;;;;;;;9.63;4.90;;;15.50;56.70;;;;;;5096925;28;20032;-72
2022/05/12 01:06:07;;;;;;;10.32;5.00;;;15.60;56.70;;;;;;5096480;28;20395;-77
2022/05/12 01:08:34;;;;;;;8.73;5.00;;;15.50;56.80;;;;;;5096438;28;20039;-72
2022/05/12 01:11:28;;;;;;;10.30;4.65;;;15.50;56.90;;;;;;5095360;28;20112;-72
2022/05/12 01:14:15;;;;;;;9.40;4.82;;;15.50;57.00;;;;;;5115026;28;20398;-72
2022/05/12 01:17:01;;;;;;;9.05;5.00;;;15.50;57.00;;;;;;5079544;28;20567;-72
2022/05/12 01:19:48;;;;;;;9.07;4.78;;;15.50;57.00;;;;;;5096938;28;20051;-72
2022/05/12 01:22:59;;;;;;;9.35;5.28;;;15.50;57.10;;;;;;5114647;28;20043;-76
2022/05/12 01:25:29;;;;;;;10.45;5.00;;;15.40;57.20;;;;;;5114013;28;20051;-72
2022/05/12 01:27:55;;;;;;;13.02;5.07;;;15.40;57.20;;;;;;5095805;28;20046;-72
2022/05/12 01:30:25;;;;;;;;;;;15.30;56.90;;;;;;5096306;28;20036;-72
2022/05/12 01:32:52;;;;;;;11.13;5.38;;;15.30;56.60;;;;;;5096516;28;19923;-72
2022/05/12 01:35:29;;;;;;;9.57;4.63;;;15.30;56.80;;;;;;5096131;28;20023;-76
2022/05/12 01:38:01;;;;;;;10.70;4.95;;;15.30;57.50;;;;;;5114943;28;20035;-76
2022/05/12 01:40:27;;;;;;;9.55;5.15;;;15.30;57.30;;;;;;5113934;28;20119;-72
2022/05/12 01:42:54;;;;;;;;;;;15.30;57.10;;;;;;5114474;28;20036;-76
2022/05/12 01:45:21;;;;;;;9.95;4.50;;;15.20;56.50;;;;;;5095675;28;20391;-76
2022/05/12 01:47:50;;;;;;;9.68;4.85;;;15.00;56.60;;;;;;5096254;28;20063;-72
2022/05/12 01:50:17;;;;;;;10.55;4.57;;;15.10;57.40;;;;;;5078785;28;20114;-76
2022/05/12 01:52:44;;;;;;;9.82;4.68;;;15.10;57.50;;;;;;5079038;28;20058;-76
2022/05/12 01:55:29;;;;;;;8.05;4.60;;;15.10;57.70;;;;;;5078610;28;20059;-76
2022/05/12 01:57:58;;;;;;;10.57;5.20;;;15.10;57.70;;;;;;5094464;28;20052;-76
2022/05/12 02:00:28;;;;;;;9.80;5.43;;;15.10;57.80;;;;;;5078357;28;20380;-75
2022/05/12 02:03:00;;;;;;;12.02;5.47;;;15.10;57.90;;;;;;5096070;28;20118;-72
2022/05/12 02:05:29;;;;;;;12.57;5.53;;;15.00;58.00;;;;;;5095692;28;20020;-76
2022/05/12 02:07:55;;;;;;;10.85;5.15;;;15.00;57.90;;;;;;5078326;28;20122;-76
2022/05/12 02:10:27;;;;;;;11.05;6.10;;;15.10;58.10;;;;;;5095091;28;20081;-76
2022/05/12 02:13:02;;;;;;;15.35;6.10;;;15.00;58.40;;;;;;5113364;28;20063;-76
2022/05/12 02:15:31;;;;;;;11.18;6.32;;;15.00;58.60;;;;;;5095112;28;20023;-76
2022/05/12 02:17:57;;;;;;;11.60;5.38;;;15.00;58.30;;;;;;5078443;28;20031;-76
2022/05/12 02:20:23;;;;;;;;;;;14.90;58.00;;;;;;5095544;28;20035;-76
2022/05/12 02:22:50;;;;;;;9.77;5.60;;;14.90;57.70;;;;;;5078701;28;20010;-72
2022/05/12 02:25:17;;;;;;;;;;;14.80;57.70;;;;;;5095430;28;20130;-76
2022/05/12 02:27:46;;;;;;;8.15;5.07;;;14.80;57.60;;;;;;5074302;28;20015;-72
2022/05/12 02:30:35;;;;;;;8.75;4.82;;;14.70;58.20;;;;;;5074862;28;20115;-76
2022/05/12 02:33:01;;;;;;;10.98;5.18;;;14.70;58.50;;;;;;5093514;28;20244;-76
2022/05/12 02:35:28;;;;;;;;;;;14.70;58.70;;;;;;5075029;28;20039;-72
2022/05/12 02:37:57;;;;;;;11.88;4.60;;;14.60;57.80;;;;;;5075149;28;19919;-76
2022/05/12 02:40:25;;;;;;;9.85;4.93;;;14.60;58.20;;;;;;5074380;28;20062;-72
2022/05/12 02:43:02;;;;;;;13.05;5.47;;;14.60;58.50;;;;;;5074204;28;20408;-76
2022/05/12 02:45:29;;;;;;;10.55;5.50;;;14.60;58.50;;;;;;5073989;28;20048;-72
2022/05/12 02:47:58;;;;;;;12.93;5.45;;;14.60;58.90;;;;;;5075034;28;20069;-72
2022/05/12 02:50:25;;;;;;;12.85;4.93;;;14.60;59.00;;;;;;5074377;28;20631;-76
2022/05/12 02:53:06;;;;;;;9.57;4.95;;;14.60;59.00;;;;;;5091270;28;20043;-71
2022/05/12 02:55:32;;;;;;;11.75;5.53;;;14.60;59.10;;;;;;5076658;28;20461;-76
2022/05/12 02:57:58;;;;;;;7.32;4.40;;;14.60;58.90;;;;;;5104147;28;20042;-72
2022/05/12 03:00:24;;;;;;;10.65;5.53;;;14.60;58.90;;;;;;5112456;28;20035;-71
2022/05/12 03:02:50;;;;;;;14.80;5.30;;;14.60;58.90;;;;;;5094894;28;20040;-72
2022/05/12 03:05:17;;;;;;;9.50;5.15;;;14.60;58.80;;;;;;5094379;28;20042;-75
2022/05/12 03:07:43;;;;;;;12.88;5.50;;;14.60;58.80;;;;;;5113040;28;20040;-76
2022/05/12 03:10:12;;;;;;;10.15;5.45;;;14.50;58.40;;;;;;5094459;28;20442;-76
2022/05/12 03:12:39;;;;;;;9.35;4.65;;;14.60;58.90;;;;;;5094081;28;20541;-75
2022/05/12 03:15:07;;;;;;;14.68;5.13;;;14.50;58.80;;;;;;5112774;28;20099;-76
2022/05/12 03:17:34;;;;;;;11.68;5.57;;;14.40;59.00;;;;;;5094767;28;20051;-76
2022/05/12 03:20:00;;;;;;;11.48;5.07;;;14.50;58.60;;;;;;5096913;28;20508;-72
2022/05/12 03:22:27;;;;;;;;;;;14.50;59.00;;;;;;5099201;28;20426;-76
2022/05/12 03:25:32;;;;;;;11.80;5.43;;;14.40;58.30;;;;;;5081755;28;20269;-72
2022/05/12 03:28:03;;;;;;;12.07;5.45;;;14.40;58.60;;;;;;4992152;28;20108;-75
2022/05/12 03:30:29;;;;;;;24.48;5.65;;;14.40;59.00;;;;;;5013565;28;20093;-76
2022/05/12 03:32:56;;;;;;;10.73;5.03;;;14.30;58.70;;;;;;4981371;28;20045;-76
2022/05/12 03:35:22;;;;;;;12.57;5.72;;;14.30;59.50;;;;;;5013734;28;20049;-75
2022/05/12 03:37:48;;;;;;;10.60;5.60;;;14.40;59.40;;;;;;5014017;28;20049;-72
2022/05/12 03:43:03;;;;;;;8.52;4.95;;;14.30;59.80;;;;;;4999044;28;20064;-71
2022/05/12 03:45:33;;;;;;;11.27;5.00;;;14.40;59.80;;;;;;4997084;28;20034;-71
2022/05/12 03:47:59;;;;;;;16.13;5.28;;;14.30;59.20;;;;;;4997665;28;20073;-75
2022/05/12 03:50:27;;;;;;;;;;;14.20;59.40;;;;;;5013895;28;20084;-72
2022/05/12 03:52:55;;;;;;;11.10;5.45;;;14.20;59.10;;;;;;4997266;28;19921;-75
2022/05/12 03:55:26;;;;;;;10.30;5.20;;;14.20;59.50;;;;;;5013296;28;20034;-75
2022/05/12 03:57:58;;;;;;;10.52;5.63;;;14.30;59.80;;;;;;5012648;28;20092;-72
2022/05/12 04:00:43;;;;;;;13.15;5.07;;;14.30;59.90;;;;;;5013197;28;20038;-75
2022/05/12 04:03:09;;;;;;;10.68;5.07;;;14.30;59.80;;;;;;5039581;28;20097;-71
2022/05/12 04:05:43;;;;;;;10.73;5.25;;;14.30;59.70;;;;;;5077321;28;20028;-75
2022/05/12 04:08:09;;;;;;;11.75;5.43;;;14.30;59.80;;;;;;5078060;28;20040;-71
2022/05/12 04:10:35;;;;;;;;;;;14.40;60.00;;;;;;5077555;28;20093;-72
2022/05/12 04:13:02;;;;;;;11.25;5.55;;;14.40;59.20;;;;;;5084183;28;20360;-75
2022/05/12 04:15:40;;;;;;;11.52;5.10;;;14.40;59.10;;;;;;5097606;28;20209;-75
2022/05/12 04:18:07;;;;;;;8.32;4.90;;;14.40;59.80;;;;;;5116552;28;20039;-74
2022/05/12 04:20:36;;;;;;;13.77;5.05;;;14.40;59.90;;;;;;5115501;28;20031;-75
2022/05/12 04:23:04;;;;;;;13.43;5.60;;;14.30;59.60;;;;;;5097942;28;20076;-72
2022/05/12 04:25:30;;;;;;;13.50;5.00;;;14.40;60.00;;;;;;5079090;28;20043;-71
2022/05/12 04:27:56;;;;;;;17.08;4.80;;;14.40;59.90;;;;;;5078695;28;20039;-75
2022/05/12 04:30:31;;;;;;;;;;;14.40;59.80;;;;;;5114225;28;20043;-75
2022/05/12 04:35:09;;;;;;;7.55;4.63;;;14.30;59.40;;;;;;5096111;28;19938;-72
2022/05/12 04:35:51;;;;;;;11.70;4.90;;;14.30;60.00;;;;;;5099009;28;20031;-75
2022/05/12 04:38:17;;;;;;;11.60;4.53;;;14.40;60.10;;;;;;5114529;28;20400;-74
2022/05/12 04:40:43;;;;;;;18.35;5.07;;;14.40;59.70;;;;;;5078931;28;20494;-74
2022/05/12 04:43:09;;;;;;;14.75;5.20;;;14.50;60.30;;;;;;5113801;28;20451;-75
2022/05/12 04:45:36;;;;;;;;;;;14.60;60.30;;;;;;5096064;28;20035;-72
2022/05/12 04:48:03;;;;;;;9.23;5.25;;;14.60;59.40;;;;;;5096218;28;20372;-74
2022/05/12 04:50:49;;;;;;;11.45;5.00;;;14.60;59.80;;;;;;5078685;28;20032;-72
2022/05/12 04:53:15;;;;;;;15.95;6.50;;;14.70;60.30;;;;;;5096155;28;20032;-71
2022/05/12 04:55:41;;;;;;;21.48;6.35;;;14.80;60.40;;;;;;5095621;28;20040;-74
2022/05/12 04:58:07;;;;;;;11.40;5.72;;;14.80;60.50;;;;;;5095196;28;20040;-74
2022/05/12 05:00:40;;;;;;;13.50;6.18;;;14.90;60.70;;;;;;5113406;28;20031;-72
2022/05/12 05:03:07;;;;;;;9.55;5.97;;;15.00;61.00;;;;;;5096251;28;20077;-72
2022/05/12 05:05:34;;;;;;;15.00;6.20;;;15.00;60.40;;;;;;5113611;28;20035;-74
2022/05/12 05:08:01;;;;;;;13.20;6.13;;;15.10;61.10;;;;;;5114421;28;20400;-75
2022/05/12 05:10:27;;;;;;;14.07;6.90;;;15.20;60.80;;;;;;5078327;28;20039;-72
2022/05/12 05:12:54;;;;;;;16.83;7.03;;;15.30;61.00;;;;;;5112901;28;20043;-71
2022/05/12 05:15:23;;;;;;;14.38;6.03;;;15.40;61.00;;;;;;5095304;28;20044;-75
2022/05/12 05:17:51;;;;;;;16.52;7.00;;;15.40;60.80;;;;;;5096166;28;20039;-75
2022/05/12 05:20:22;;;;;;;13.50;6.78;;;15.60;61.20;;;;;;5095305;28;20035;-75
2022/05/12 05:22:52;;;;;;;16.17;8.07;;;15.70;61.10;;;;;;5078619;28;20035;-75
2022/05/12 05:25:18;;;;;;;13.48;6.93;;;15.80;61.10;;;;;;5068219;28;1281671;-75
2022/05/12 05:27:45;;;;;;;14.82;6.75;;;15.80;60.90;;;;;;5079647;28;20031;-72
2022/05/12 05:30:21;;;;;;;12.73;6.30;;;15.90;60.70;;;;;;5094945;28;20142;-75
2022/05/12 05:32:50;;;;;;;13.13;6.65;;;16.10;60.70;;;;;;5114669;28;20044;-75
2022/05/12 05:35:21;;;;;;;13.70;6.63;;;16.30;60.60;;;;;;5095930;28;20039;-76
2022/05/12 05:37:49;;;;;;;13.48;5.88;;;16.30;60.30;;;;;;5096468;28;20434;-75
2022/05/12 05:40:28;;;;;;;11.30;6.00;;;16.40;59.70;;;;;;5095773;28;20028;-72
2022/05/12 05:42:59;;;;;;;10.52;5.50;;;16.50;59.40;;;;;;5079182;28;20070;-72
2022/05/12 05:45:27;;;;;;;11.48;6.47;;;16.70;59.00;;;;;;5095908;28;20126;-76
2022/05/12 05:47:58;;;;;;;9.82;5.53;;;16.80;58.20;;;;;;5079317;28;20515;-72
2022/05/12 05:53:38;;;;;;;13.18;6.57;;;17.00;58.40;;;;;;5098814;28;20047;-73
2022/05/12 05:56:28;;;;;;;17.58;7.05;;;17.10;58.40;;;;;;5095572;28;20023;-76
2022/05/12 05:58:54;;;;;;;10.40;5.28;;;17.30;58.50;;;;;;5095054;28;20035;-76
2022/05/12 06:01:20;;;;;;;10.57;5.40;;;17.40;58.30;;;;;;5095453;28;20044;-76
2022/05/12 06:03:49;;;;;;;17.52;6.53;;;17.60;58.20;;;;;;5113739;28;20038;-72
2022/05/12 06:06:16;;;;;;;11.15;5.80;;;17.70;58.30;;;;;;5113586;28;20469;-76
2022/05/12 06:08:43;;;;;;;11.35;6.25;;;17.80;58.00;;;;;;5095944;28;20392;-72
2022/05/12 06:11:09;;;;;;;13.23;6.20;;;17.90;57.90;;;;;;5095040;28;20028;-73
2022/05/12 06:13:41;;;;;;;15.50;6.10;;;18.00;57.80;;;;;;5092279;28;20504;-76
2022/05/12 06:16:07;;;;;;;16.27;5.90;;;18.10;57.70;;;;;;5058250;28;20122;-72
2022/05/12 06:18:36;;;;;;;;;;;18.20;57.50;;;;;;5075107;28;20044;-73
2022/05/12 06:21:04;;;;;;;10.65;5.07;;;18.40;56.40;;;;;;5075261;28;19994;-73
2022/05/12 06:23:30;;;;;;;10.95;5.63;;;18.50;56.60;;;;;;5093148;28;20032;-76
2022/05/12 06:26:02;;;;;;;8.70;4.82;;;18.60;56.20;;;;;;5074444;28;20040;-73
2022/05/12 06:28:28;;;;;;;8.65;5.10;;;18.80;56.00;;;;;;5093133;28;20488;-73
2022/05/12 06:30:54;;;;;;;11.98;5.63;;;18.90;55.80;;;;;;5074599;28;20105;-76
2022/05/12 06:33:22;;;;;;;13.57;4.90;;;19.00;55.30;;;;;;5074739;28;20046;-73
2022/05/12 06:35:49;;;;;;;20.65;5.75;;;19.20;55.00;;;;;;5074598;28;20036;-73
2022/05/12 06:38:15;;;;;;;14.90;5.40;;;19.30;54.80;;;;;;5074909;28;20066;-76
2022/05/12 06:40:41;;;;;;;10.55;5.63;;;19.50;54.10;;;;;;5092534;28;20048;-73
2022/05/12 06:43:08;;;;;;;10.45;5.47;;;19.60;53.60;;;;;;5075147;28;20036;-75
2022/05/12 06:45:35;;;;;;;8.10;4.32;;;19.80;53.00;;;;;;5074557;28;20496;-72
2022/05/12 06:48:01;;;;;;;11.30;6.35;;;20.00;52.40;;;;;;5093965;28;20492;-76
2022/05/12 06:50:37;;;;;;;10.55;5.28;;;20.20;52.00;;;;;;5077502;28;20442;-73
2022/05/12 06:53:05;;;;;;;11.30;5.15;;;20.30;51.90;;;;;;5095235;28;20035;-76
2022/05/12 06:55:31;;;;;;;13.77;5.88;;;20.50;51.20;;;;;;5077803;28;20032;-76
2022/05/12 06:57:57;;;;;;;;;;;20.70;51.10;;;;;;5078501;28;20073;-76
2022/05/12 07:00:24;;;;;;;12.35;5.05;;;20.90;50.80;;;;;;5093604;28;19920;-72
2022/05/12 07:02:52;;;;;;;9.13;5.18;;;21.10;50.10;;;;;;5095058;28;20032;-73
2022/05/12 07:05:23;;;;;;;13.98;5.95;;;21.30;49.20;;;;;;5112241;28;20032;-73
2022/05/12 07:07:51;;;;;;;15.75;8.05;;;21.50;49.30;;;;;;5095000;28;20039;-72
2022/05/12 07:10:20;;;;;;;17.20;11.50;;;21.70;48.90;;;;;;5094131;28;20492;-77
2022/05/12 07:12:47;;;;;;;8.65;4.57;;;21.90;49.00;;;;;;5094847;28;20032;-78
2022/05/12 07:15:14;;;;;;;9.82;4.75;;;22.10;48.80;;;;;;5093372;28;20557;-72
2022/05/12 07:17:44;;;;;;;58.92;29.20;;;22.30;48.60;;;;;;5094857;28;20510;-73
2022/05/12 07:28:33;;;;;;;15.23;5.65;;;22.80;47.40;;;;;;5097206;28;20051;-78
2022/05/12 07:31:00;;;;;;;10.18;5.25;;;22.80;48.40;;;;;;5111295;28;20066;-78
2022/05/12 07:33:46;;;;;;;12.63;5.15;;;22.80;48.20;;;;;;5094404;28;20040;-78
2022/05/12 07:36:34;;;;;;;9.45;5.10;;;22.90;48.40;;;;;;5077568;28;20487;-73
2022/05/12 07:39:03;;;;;;;10.77;5.85;;;23.00;48.00;;;;;;5094579;28;20441;-78
2022/05/12 07:41:30;;;;;;;8.80;5.07;;;23.10;47.70;;;;;;5094075;28;20451;-73
2022/05/12 07:43:56;;;;;;;9.45;5.03;;;23.20;47.60;;;;;;5094480;28;20039;-73
2022/05/12 07:46:30;;;;;;;11.30;4.80;;;23.30;48.30;;;;;;5073095;28;20032;-78
2022/05/12 07:48:57;;;;;;;34.67;21.30;;;23.30;47.10;;;;;;5092283;28;20111;-73
2022/05/12 07:51:24;;;;;;;17.13;6.00;;;23.40;47.30;;;;;;5090607;28;20040;-73
2022/05/12 07:53:52;;;;;;;8.40;4.93;;;23.60;47.30;;;;;;5074234;28;20115;-72
2022/05/12 07:56:22;;;;;;;8.52;5.20;;;23.60;46.20;;;;;;5073513;28;20032;-77
2022/05/12 07:58:49;;;;;;;12.00;5.47;;;23.70;46.90;;;;;;5074297;28;20397;-73
2022/05/12 08:01:17;;;;;;;10.23;4.93;;;23.90;47.00;;;;;;5109175;28;20043;-73
2022/05/12 08:03:44;;;;;;;10.82;4.90;;;24.10;46.80;;;;;;5094483;28;20100;-72
2022/05/12 08:06:15;;;;;;;14.88;5.15;;;24.30;46.40;;;;;;5096141;28;20035;-78
2022/05/12 08:09:01;;;;;;;11.10;4.95;;;24.50;45.70;;;;;;5098529;28;20035;-73
2022/05/12 08:11:27;;;;;;;12.75;5.25;;;25.00;45.40;;;;;;5097454;28;20122;-73
2022/05/12 08:13:53;;;;;;;10.25;4.63;;;25.40;44.00;;;;;;5080949;28;20030;-73
2022/05/12 08:16:21;;;;;;;;;;;25.60;43.70;;;;;;5080075;28;20031;-79
2022/05/12 08:18:49;;;;;;;;;;;26.00;44.30;;;;;;5098441;28;19920;-73
2022/05/12 08:21:18;;;;;;;14.40;5.78;;;26.30;43.80;;;;;;5080642;28;20384;-73
2022/05/12 08:23:44;;;;;;;10.50;5.15;;;26.70;41.30;;;;;;5097693;28;20034;-80
2022/05/12 08:26:11;;;;;;;13.85;5.63;;;27.20;41.80;;;;;;5115588;28;20051;-73
2022/05/12 08:31:27;;;;;;;13.90;5.07;;;28.30;38.70;;;;;;5098652;28;20109;-73
2022/05/12 08:33:56;;;;;;;8.20;4.82;;;28.90;38.30;;;;;;5098448;28;20327;-74
2022/05/12 08:36:24;;;;;;;9.57;5.10;;;29.60;37.40;;;;;;5115533;28;20047;-73
2022/05/12 08:38:51;;;;;;;10.18;4.90;;;30.30;35.50;;;;;;5097619;28;20038;-79
2022/05/12 08:41:46;;;;;;;9.45;4.68;;;30.90;34.90;;;;;;5115116;28;20083;-73
2022/05/12 08:44:19;;;;;;;9.88;4.90;;;31.40;33.30;;;;;;5080538;28;20039;-73
2022/05/12 08:47:05;;;;;;;9.30;4.88;;;31.90;32.50;;;;;;5096449;28;20032;-73
2022/05/12 08:49:51;;;;;;;8.40;4.68;;;32.50;31.30;;;;;;5097347;28;20036;-74
2022/05/12 08:53:13;;;;;;;8.30;4.40;;;33.40;31.20;;;;;;5096783;28;20039;-74
2022/05/12 08:55:51;;;;;;;7.28;4.53;;;34.10;30.50;;;;;;5114860;28;20039;-80
2022/05/12 08:58:26;;;;;;;10.13;4.07;;;34.70;28.30;;;;;;5080210;28;20047;-73
2022/05/12 09:01:04;;;;;;;8.30;4.57;;;35.30;27.60;;;;;;5095456;28;20042;-79
2022/05/12 09:04:26;;;;;;;9.85;4.05;;;36.10;26.30;;;;;;5096972;28;20050;-78
2022/05/12 09:07:48;;;;;;;10.80;4.25;;;36.70;26.50;;;;;;5114970;28;20031;-78
2022/05/12 09:10:53;;;;;;;11.77;4.53;;;37.70;25.90;;;;;;5114390;28;20042;-73
2022/05/12 09:13:30;;;;;;;7.40;4.40;;;38.40;24.60;;;;;;5115043;28;20089;-74
2022/05/12 09:16:07;;;;;;;12.32;4.22;;;39.00;23.00;;;;;;5095484;28;20027;-77
2022/05/12 09:18:37;;;;;;;7.35;4.68;;;39.60;22.00;;;;;;5095473;28;20036;-73
2022/05/12 09:21:27;;;;;;;9.18;4.55;;;40.00;22.50;;;;;;5096245;28;20082;-74
2022/05/12 09:23:57;;;;;;;7.70;4.25;;;40.80;21.60;;;;;;5114779;28;20032;-74
2022/05/12 09:26:59;;;;;;;10.90;4.32;;;41.20;20.60;;;;;;5096400;28;20043;-74
2022/05/12 09:29:48;;;;;;;6.40;4.22;;;41.30;20.50;;;;;;5114554;28;20043;-73
2022/05/12 09:32:42;;;;;;;9.23;4.68;;;41.30;19.70;;;;;;5095225;28;20028;-73
2022/05/12 09:35:45;;;;;;;7.72;4.68;;;41.70;19.70;;;;;;5114072;28;20488;-73
2022/05/12 09:38:23;;;;;;;7.35;4.78;;;42.70;19.10;;;;;;5099634;28;20105;-73
2022/05/12 09:40:50;;;;;;;8.38;4.57;;;43.40;18.80;;;;;;5114103;28;20101;-78
2022/05/12 09:43:33;;;;;;;7.72;4.43;;;43.80;17.70;;;;;;5096016;28;20031;-73
2022/05/12 09:46:29;;;;;;;8.05;4.50;;;44.10;18.00;;;;;;5074653;28;20043;-73
2022/05/12 09:49:34;;;;;;;10.32;4.25;;;44.60;17.90;;;;;;5076234;28;20040;-73
2022/05/12 09:52:39;;;;;;;10.40;4.28;;;44.90;17.20;;;;;;5075557;28;20085;-77
2022/05/12 09:55:42;;;;;;;9.48;4.57;;;45.30;17.30;;;;;;5093644;28;20553;-79
2022/05/12 09:59:07;;;;;;;11.70;4.90;;;45.90;16.50;;;;;;5094240;28;20028;-74
2022/05/12 10:01:36;;;;;;;9.05;4.93;;;46.90;15.90;;;;;;5104454;28;20035;-73
2022/05/12 10:10:37;;;;;;;10.13;4.55;;;47.40;15.60;;;;;;5098048;28;20062;-73
2022/05/12 10:14:00;;;;;;;7.93;4.63;;;47.80;15.00;;;;;;5096002;28;20059;-73
2022/05/12 10:16:30;;;;;;;7.15;4.10;;;48.20;15.00;;;;;;5112437;28;20396;-73
2022/05/12 10:19:03;;;;;;;9.55;4.40;;;48.20;14.60;;;;;;5095525;28;20023;-73
2022/05/12 10:22:29;;;;;;;9.98;5.20;;;48.90;13.80;;;;;;5095135;28;20085;-77
2022/05/12 10:25:13;;;;;;;6.00;4.45;;;49.80;14.30;;;;;;5095061;28;20098;-77
2022/05/12 10:28:24;;;;;;;11.70;5.13;;;50.70;13.30;;;;;;5113855;28;20058;-77
2022/05/12 10:31:05;;;;;;;8.00;4.70;;;50.90;13.10;;;;;;5112304;28;20062;-76
2022/05/12 10:33:40;;;;;;;14.30;6.72;;;51.40;12.40;;;;;;5113460;28;20599;-77
2022/05/12 10:36:35;;;;;;;27.05;5.93;;;51.80;12.20;;;;;;5094430;28;20484;-77
2022/05/12 10:39:25;;;;;;;8.27;6.22;;;51.40;12.60;;;;;;5078091;28;20047;-74
2022/05/12 10:42:12;;;;;;;11.35;5.25;;;51.80;12.00;;;;;;5094699;28;20043;-76
2022/05/12 10:45:37;;;;;;;11.32;5.90;;;52.40;12.10;;;;;;5113305;28;20036;-73
2022/05/12 10:48:12;;;;;;;10.45;5.63;;;52.90;11.90;;;;;;5094937;28;20042;-77
2022/05/12 10:50:51;;;;;;;20.98;6.45;;;53.00;11.80;;;;;;5113053;28;20089;-77
2022/05/12 10:54:10;;;;;;;8.68;5.38;;;52.90;11.70;;;;;;5113242;28;20054;-72
2022/05/12 10:57:10;;;;;;;7.28;4.88;;;52.80;11.50;;;;;;5094590;28;20035;-76
2022/05/12 10:59:49;;;;;;;18.45;6.40;;;52.60;11.40;;;;;;5094870;28;20059;-77
2022/05/12 11:02:37;;;;;;;10.05;5.35;;;53.20;11.70;;;;;;5093789;28;20027;-76
2022/05/12 11:05:21;;;;;;;8.35;5.72;;;53.90;11.10;;;;;;5113061;28;20063;-77
2022/05/12 11:08:15;;;;;;;10.70;6.88;;;54.30;11.30;;;;;;5094425;28;20086;-75
2022/05/12 11:11:01;;;;;;;10.55;7.82;;;54.70;11.00;;;;;;5094139;28;20488;-73
2022/05/12 11:14:23;;;;;;;8.77;6.07;;;55.30;11.10;;;;;;5077868;28;20070;-76
2022/05/12 11:17:09;;;;;;;8.68;6.63;;;55.80;10.70;;;;;;5093377;28;20476;-76
2022/05/12 11:19:40;;;;;;;11.88;5.93;;;56.00;10.70;;;;;;5112928;28;20032;-77
2022/05/12 11:22:39;;;;;;;8.25;7.30;;;55.60;10.60;;;;;;5112837;28;20032;-76
2022/05/12 11:25:19;;;;;;;11.52;7.47;;;56.00;10.50;;;;;;5112482;28;20056;-77
2022/05/12 11:32:22;;;;;;;11.85;7.40;;;56.30;10.40;;;;;;5111595;28;20442;-77
2022/05/12 11:35:11;;;;;;;7.47;6.78;;;56.70;9.80;;;;;;5094568;28;20061;-75
2022/05/12 11:37:59;;;;;;;10.50;7.60;;;57.00;9.90;;;;;;5094738;28;20408;-73
2022/05/12 11:41:22;;;;;;;8.30;7.43;;;56.50;10.20;;;;;;5095112;28;20040;-73
2022/05/12 11:47:03;;;;;;;9.43;7.78;;;57.50;9.20;;;;;;5100039;28;20092;-77
2022/05/12 11:50:06;;;;;;;8.60;7.60;;;57.50;9.70;;;;;;5116237;28;20032;-76
2022/05/12 11:53:29;;;;;;;9.00;8.18;;;57.10;9.90;;;;;;5116757;28;20305;-73
2022/05/12 11:56:12;;;;;;;9.20;7.28;;;57.30;9.60;;;;;;5115740;28;20036;-73
2022/05/12 11:58:43;;;;;;;8.40;7.60;;;57.30;9.40;;;;;;5116240;28;20027;-72
2022/05/12 12:01:48;;;;;;;16.98;8.15;;;57.30;9.30;;;;;;5097449;28;20028;-76
2022/05/12 12:04:15;;;;;;;9.25;8.15;;;57.70;9.30;;;;;;5098203;28;20036;-72
2022/05/12 12:07:01;;;;;;;9.82;8.25;;;58.20;9.10;;;;;;5116098;28;20471;-73
2022/05/12 12:09:48;;;;;;;12.57;8.13;;;58.70;9.10;;;;;;5097909;28;20135;-77
2022/05/12 12:13:11;;;;;;;9.63;8.45;;;58.80;9.20;;;;;;5116057;28;20032;-73
2022/05/12 12:15:59;;;;;;;9.13;8.25;;;58.30;9.30;;;;;;5115756;28;20043;-77
2022/05/12 12:19:03;;;;;;;9.27;8.40;;;58.70;8.00;;;;;;5097016;28;20400;-73
2022/05/12 12:21:51;;;;;;;10.52;9.18;;;59.10;9.00;;;;;;5097189;28;20031;-76
2022/05/12 12:24:42;;;;;;;11.38;8.88;;;59.30;8.80;;;;;;5097686;28;20089;-74
2022/05/12 12:27:42;;;;;;;9.88;8.98;;;59.00;8.80;;;;;;5097802;28;20039;-74
2022/05/12 12:31:05;;;;;;;13.13;8.88;;;58.80;8.40;;;;;;5097235;28;20032;-73
2022/05/12 12:34:27;;;;;;;11.88;9.30;;;59.10;8.70;;;;;;5114883;28;20591;-76
2022/05/12 12:37:50;;;;;;;10.90;9.85;;;59.70;8.70;;;;;;5096851;28;20042;-73
2022/05/12 12:40:37;;;;;;;10.00;9.20;;;60.00;8.70;;;;;;5115254;28;20031;-76
2022/05/12 12:43:27;;;;;;;10.05;9.15;;;59.80;7.90;;;;;;5116074;28;20036;-76
2022/05/12 12:45:54;;;;;;;13.60;10.13;;;60.20;8.60;;;;;;5094147;28;20059;-73
2022/05/12 12:48:48;;;;;;;10.80;9.90;;;60.20;8.90;;;;;;5095010;28;20036;-74
2022/05/12 12:51:51;;;;;;;10.55;9.55;;;60.50;7.90;;;;;;5096475;28;20038;-73
2022/05/12 12:57:30;;;;;;;11.48;10.30;;;60.20;8.20;;;;;;5114939;28;20104;-73
2022/05/12 13:00:35;;;;;;;21.40;10.15;;;60.20;8.00;;;;;;5097034;28;20040;-76
2022/05/12 13:03:21;;;;;;;13.73;10.85;;;60.50;7.90;;;;;;5096344;28;20037;-76
2022/05/12 13:05:48;;;;;;;12.27;9.65;;;60.20;8.30;;;;;;5079481;28;20088;-76
2022/05/12 13:08:33;;;;;;;11.63;10.38;;;60.60;7.60;;;;;;5097055;28;20043;-76
2022/05/12 13:11:03;;;;;;;12.85;11.27;;;60.60;8.00;;;;;;5113854;28;20055;-73
2022/05/12 13:13:33;;;;;;;11.40;10.40;;;60.70;7.40;;;;;;5114873;28;20027;-73
2022/05/12 13:16:04;;;;;;;12.05;10.85;;;60.70;7.70;;;;;;5114621;28;20028;-75
2022/05/12 13:18:37;;;;;;;10.70;9.80;;;61.00;8.30;;;;;;5095775;28;20036;-73
2022/05/12 13:21:04;;;;;;;11.25;10.35;;;60.50;7.60;;;;;;5096497;28;20034;-76
2022/05/12 13:24:09;;;;;;;14.65;10.45;;;60.10;7.50;;;;;;5096551;28;20028;-76
2022/05/12 13:26:43;;;;;;;10.85;9.93;;;60.10;8.10;;;;;;5114814;28;20059;-74
2022/05/12 13:29:20;;;;;;;10.02;9.13;;;59.60;7.20;;;;;;5097075;28;20400;-75
2022/05/12 13:32:31;;;;;;;10.68;9.82;;;59.80;7.00;;;;;;5096033;28;20031;-73
2022/05/12 13:35:21;;;;;;;10.27;9.15;;;59.80;7.90;;;;;;5114663;28;20119;-73
2022/05/12 13:38:27;;;;;;;12.35;10.27;;;60.00;8.10;;;;;;5114965;28;20046;-76
2022/05/12 13:41:38;;;;;;;10.10;9.20;;;60.50;8.20;;;;;;5095783;28;20036;-75
2022/05/12 13:44:41;;;;;;;10.38;9.23;;;60.00;7.90;;;;;;5096952;28;20032;-76
2022/05/12 13:47:21;;;;;;;10.07;9.27;;;59.60;8.00;;;;;;5094994;28;20044;-73
2022/05/12 13:49:51;;;;;;;8.70;7.80;;;59.10;7.60;;;;;;5096539;28;20457;-73
2022/05/12 13:52:22;;;;;;;9.00;7.90;;;58.80;7.60;;;;;;5095731;28;20084;-73
2022/05/12 13:55:39;;;;;;;8.93;8.15;;;58.70;7.50;;;;;;5095931;28;20047;-73
2022/05/12 13:58:05;;;;;;;11.27;7.07;;;59.00;8.10;;;;;;5096200;28;20293;-76
2022/05/12 14:00:53;;;;;;;10.90;7.32;;;59.00;7.40;;;;;;5113758;28;20038;-73
2022/05/12 14:03:32;;;;;;;8.80;7.00;;;58.60;7.70;;;;;;5094169;28;20059;-73
2022/05/12 14:06:19;;;;;;;7.10;6.25;;;58.30;7.80;;;;;;5095748;28;20472;-73
2022/05/12 14:08:45;;;;;;;7.93;7.18;;;58.20;8.00;;;;;;5095804;28;20023;-76
2022/05/12 14:11:30;;;;;;;6.32;5.72;;;58.30;8.00;;;;;;5095184;28;20088;-74
2022/05/12 14:19:49;;;;;;;12.25;5.97;;;57.60;7.60;;;;;;5097543;28;20047;-73